sensor_id;sensor_type;location;lat;lon;timestamp;P1;durP1;ratioP1;P2;durP2;ratioP2
26512;SDS011;14186;53.822;10.152;2023-09-12T00:01:36;19.77;;;12.35;;
26512;SDS011;14186;53.822;10.152;2023-09-12T00:06:37;16.50;;;12.65;;
26512;SDS011;14186;53.822;10.152;2023-09-12T00:11:37;19.30;;;13.23;;
26512;SDS011;14186;53.822;10.152;2023-09-12T00:16:38;23.15;;;15.57;;
26512;SDS011;14186;53.822;10.152;2023-09-12T00:21:39;27.08;;;17.85;;
26512;SDS011;14186;53.822;10.152;2023-09-12T00:26:39;28.58;;;20.27;;
26512;SDS011;14186;53.822;10.152;2023-09-12T00:31:39;34.63;;;20.73;;
26512;SDS011;14186;53.822;10.152;2023-09-12T00:36:41;32.17;;;20.98;;
26512;SDS011;14186;53.822;10.152;2023-09-12T00:41:41;36.30;;;21.33;;
26512;SDS011;14186;53.822;10.152;2023-09-12T00:46:41;33.75;;;21.23;;
26512;SDS011;14186;53.822;10.152;2023-09-12T00:51:43;34.30;;;21.08;;
26512;SDS011;14186;53.822;10.152;2023-09-12T00:56:44;35.35;;;21.45;;
26512;SDS011;14186;53.822;10.152;2023-09-12T01:01:45;32.25;;;20.17;;
26512;SDS011;14186;53.822;10.152;2023-09-12T01:06:47;34.35;;;20.85;;
26512;SDS011;14186;53.822;10.152;2023-09-12T01:11:47;33.33;;;20.13;;
26512;SDS011;14186;53.822;10.152;2023-09-12T01:16:47;32.08;;;19.90;;
26512;SDS011;14186;53.822;10.152;2023-09-12T01:27:12;31.67;;;20.67;;
26512;SDS011;14186;53.822;10.152;2023-09-12T01:32:13;27.23;;;19.48;;
26512;SDS011;14186;53.822;10.152;2023-09-12T01:37:14;32.78;;;19.52;;
26512;SDS011;14186;53.822;10.152;2023-09-12T01:42:16;30.50;;;18.13;;
26512;SDS011;14186;53.822;10.152;2023-09-12T01:47:18;30.63;;;19.08;;
26512;SDS011;14186;53.822;10.152;2023-09-12T01:52:18;29.02;;;19.35;;
26512;SDS011;14186;53.822;10.152;2023-09-12T01:57:20;33.78;;;19.48;;
26512;SDS011;14186;53.822;10.152;2023-09-12T02:02:21;32.75;;;20.67;;
26512;SDS011;14186;53.822;10.152;2023-09-12T02:07:21;33.22;;;20.40;;
26512;SDS011;14186;53.822;10.152;2023-09-12T02:12:24;30.38;;;18.40;;
26512;SDS011;14186;53.822;10.152;2023-09-12T02:17:24;32.25;;;20.63;;
26512;SDS011;14186;53.822;10.152;2023-09-12T02:22:25;37.95;;;21.48;;
26512;SDS011;14186;53.822;10.152;2023-09-12T02:27:26;35.67;;;20.42;;
26512;SDS011;14186;53.822;10.152;2023-09-12T02:32:26;36.30;;;21.30;;
26512;SDS011;14186;53.822;10.152;2023-09-12T02:37:26;37.15;;;22.48;;
26512;SDS011;14186;53.822;10.152;2023-09-12T02:42:28;34.30;;;20.67;;
26512;SDS011;14186;53.822;10.152;2023-09-12T02:47:28;36.30;;;22.88;;
26512;SDS011;14186;53.822;10.152;2023-09-12T02:52:28;33.20;;;20.65;;
26512;SDS011;14186;53.822;10.152;2023-09-12T02:57:30;36.08;;;20.98;;
26512;SDS011;14186;53.822;10.152;2023-09-12T03:02:30;34.17;;;19.00;;
26512;SDS011;14186;53.822;10.152;2023-09-12T03:07:30;36.08;;;21.85;;
26512;SDS011;14186;53.822;10.152;2023-09-12T03:12:32;40.80;;;23.10;;
26512;SDS011;14186;53.822;10.152;2023-09-12T03:17:32;38.00;;;22.42;;
26512;SDS011;14186;53.822;10.152;2023-09-12T03:22:32;40.47;;;22.27;;
26512;SDS011;14186;53.822;10.152;2023-09-12T03:27:34;35.15;;;20.67;;
26512;SDS011;14186;53.822;10.152;2023-09-12T03:32:34;40.75;;;23.27;;
26512;SDS011;14186;53.822;10.152;2023-09-12T03:37:34;41.97;;;23.52;;
26512;SDS011;14186;53.822;10.152;2023-09-12T03:42:36;38.60;;;20.77;;
26512;SDS011;14186;53.822;10.152;2023-09-12T03:47:36;37.35;;;20.85;;
26512;SDS011;14186;53.822;10.152;2023-09-12T03:52:36;41.83;;;22.52;;
26512;SDS011;14186;53.822;10.152;2023-09-12T03:57:38;37.22;;;20.70;;
26512;SDS011;14186;53.822;10.152;2023-09-12T04:02:38;34.13;;;20.05;;
26512;SDS011;14186;53.822;10.152;2023-09-12T04:07:38;34.10;;;20.38;;
26512;SDS011;14186;53.822;10.152;2023-09-12T04:12:40;35.55;;;19.98;;
26512;SDS011;14186;53.822;10.152;2023-09-12T04:17:40;31.70;;;19.60;;
26512;SDS011;14186;53.822;10.152;2023-09-12T04:22:42;36.40;;;20.92;;
26512;SDS011;14186;53.822;10.152;2023-09-12T04:27:43;34.83;;;20.33;;
26512;SDS011;14186;53.822;10.152;2023-09-12T04:32:43;30.58;;;19.58;;
26512;SDS011;14186;53.822;10.152;2023-09-12T04:37:43;33.83;;;19.27;;
26512;SDS011;14186;53.822;10.152;2023-09-12T04:42:45;31.60;;;18.85;;
26512;SDS011;14186;53.822;10.152;2023-09-12T04:47:45;34.53;;;20.73;;
26512;SDS011;14186;53.822;10.152;2023-09-12T04:52:45;39.00;;;21.98;;
26512;SDS011;14186;53.822;10.152;2023-09-12T04:57:47;33.88;;;19.58;;
26512;SDS011;14186;53.822;10.152;2023-09-12T05:02:47;32.85;;;19.38;;
26512;SDS011;14186;53.822;10.152;2023-09-12T05:07:47;32.85;;;20.23;;
26512;SDS011;14186;53.822;10.152;2023-09-12T05:12:49;34.03;;;20.40;;
26512;SDS011;14186;53.822;10.152;2023-09-12T05:17:49;33.53;;;21.33;;
26512;SDS011;14186;53.822;10.152;2023-09-12T05:22:49;40.53;;;23.35;;
26512;SDS011;14186;53.822;10.152;2023-09-12T05:27:51;39.60;;;22.98;;
26512;SDS011;14186;53.822;10.152;2023-09-12T05:32:51;35.45;;;20.40;;
26512;SDS011;14186;53.822;10.152;2023-09-12T05:37:52;36.42;;;20.73;;
26512;SDS011;14186;53.822;10.152;2023-09-12T05:42:53;39.63;;;20.70;;
26512;SDS011;14186;53.822;10.152;2023-09-12T05:47:54;38.90;;;22.02;;
26512;SDS011;14186;53.822;10.152;2023-09-12T05:52:54;34.65;;;20.30;;
26512;SDS011;14186;53.822;10.152;2023-09-12T05:57:55;35.25;;;20.83;;
26512;SDS011;14186;53.822;10.152;2023-09-12T06:02:55;36.15;;;19.67;;
26512;SDS011;14186;53.822;10.152;2023-09-12T06:07:56;37.70;;;22.13;;
26512;SDS011;14186;53.822;10.152;2023-09-12T06:12:57;41.13;;;22.60;;
26512;SDS011;14186;53.822;10.152;2023-09-12T06:17:57;39.58;;;21.88;;
26512;SDS011;14186;53.822;10.152;2023-09-12T06:22:58;36.17;;;21.45;;
26512;SDS011;14186;53.822;10.152;2023-09-12T06:27:59;40.33;;;21.88;;
26512;SDS011;14186;53.822;10.152;2023-09-12T06:32:59;44.10;;;23.90;;
26512;SDS011;14186;53.822;10.152;2023-09-12T06:38:00;41.28;;;23.88;;
26512;SDS011;14186;53.822;10.152;2023-09-12T06:43:01;41.53;;;23.50;;
26512;SDS011;14186;53.822;10.152;2023-09-12T06:48:01;39.30;;;22.52;;
26512;SDS011;14186;53.822;10.152;2023-09-12T06:53:02;37.05;;;22.25;;
26512;SDS011;14186;53.822;10.152;2023-09-12T06:58:04;38.80;;;20.93;;
26512;SDS011;14186;53.822;10.152;2023-09-12T07:03:04;38.88;;;21.83;;
26512;SDS011;14186;53.822;10.152;2023-09-12T07:08:04;34.42;;;19.77;;
26512;SDS011;14186;53.822;10.152;2023-09-12T07:13:06;37.78;;;21.40;;
26512;SDS011;14186;53.822;10.152;2023-09-12T07:18:06;40.33;;;22.85;;
26512;SDS011;14186;53.822;10.152;2023-09-12T07:23:06;39.30;;;22.67;;
26512;SDS011;14186;53.822;10.152;2023-09-12T07:28:08;37.13;;;21.15;;
26512;SDS011;14186;53.822;10.152;2023-09-12T07:33:08;34.78;;;20.65;;
26512;SDS011;14186;53.822;10.152;2023-09-12T07:38:09;34.88;;;20.27;;
26512;SDS011;14186;53.822;10.152;2023-09-12T07:43:10;34.38;;;22.02;;
26512;SDS011;14186;53.822;10.152;2023-09-12T07:48:10;31.13;;;19.55;;
26512;SDS011;14186;53.822;10.152;2023-09-12T07:53:10;34.05;;;20.90;;
26512;SDS011;14186;53.822;10.152;2023-09-12T07:58:12;29.77;;;17.00;;
26512;SDS011;14186;53.822;10.152;2023-09-12T08:03:12;32.80;;;19.67;;
26512;SDS011;14186;53.822;10.152;2023-09-12T08:08:13;34.53;;;20.38;;
26512;SDS011;14186;53.822;10.152;2023-09-12T08:13:14;33.75;;;20.02;;
26512;SDS011;14186;53.822;10.152;2023-09-12T08:18:14;34.67;;;20.98;;
26512;SDS011;14186;53.822;10.152;2023-09-12T08:23:15;40.10;;;21.67;;
26512;SDS011;14186;53.822;10.152;2023-09-12T08:28:16;35.38;;;20.17;;
26512;SDS011;14186;53.822;10.152;2023-09-12T08:33:16;30.48;;;18.45;;
26512;SDS011;14186;53.822;10.152;2023-09-12T08:38:17;29.90;;;17.80;;
26512;SDS011;14186;53.822;10.152;2023-09-12T08:43:18;33.47;;;16.80;;
26512;SDS011;14186;53.822;10.152;2023-09-12T08:48:19;26.25;;;17.13;;
26512;SDS011;14186;53.822;10.152;2023-09-12T08:53:20;24.75;;;15.10;;
26512;SDS011;14186;53.822;10.152;2023-09-12T08:58:22;22.15;;;14.52;;
26512;SDS011;14186;53.822;10.152;2023-09-12T09:03:22;26.17;;;15.95;;
26512;SDS011;14186;53.822;10.152;2023-09-12T09:08:23;23.07;;;15.37;;
26512;SDS011;14186;53.822;10.152;2023-09-12T09:13:25;26.50;;;16.42;;
26512;SDS011;14186;53.822;10.152;2023-09-12T09:18:25;22.77;;;14.20;;
26512;SDS011;14186;53.822;10.152;2023-09-12T09:23:25;24.02;;;15.32;;
26512;SDS011;14186;53.822;10.152;2023-09-12T09:28:27;19.83;;;11.18;;
26512;SDS011;14186;53.822;10.152;2023-09-12T09:33:27;22.38;;;13.15;;
26512;SDS011;14186;53.822;10.152;2023-09-12T09:38:27;17.10;;;11.52;;
26512;SDS011;14186;53.822;10.152;2023-09-12T09:43:29;14.10;;;9.15;;
26512;SDS011;14186;53.822;10.152;2023-09-12T09:48:30;16.00;;;9.52;;
26512;SDS011;14186;53.822;10.152;2023-09-12T09:53:31;16.50;;;9.30;;
26512;SDS011;14186;53.822;10.152;2023-09-12T09:58:32;13.20;;;8.35;;
26512;SDS011;14186;53.822;10.152;2023-09-12T10:03:32;15.07;;;8.88;;
26512;SDS011;14186;53.822;10.152;2023-09-12T10:08:35;12.30;;;8.25;;
26512;SDS011;14186;53.822;10.152;2023-09-12T10:13:38;12.38;;;7.80;;
26512;SDS011;14186;53.822;10.152;2023-09-12T10:18:42;13.77;;;8.98;;
26512;SDS011;14186;53.822;10.152;2023-09-12T10:23:44;15.18;;;9.90;;
26512;SDS011;14186;53.822;10.152;2023-09-12T10:28:46;14.55;;;7.85;;
26512;SDS011;14186;53.822;10.152;2023-09-12T10:33:46;10.90;;;7.28;;
26512;SDS011;14186;53.822;10.152;2023-09-12T10:38:49;14.20;;;9.18;;
26512;SDS011;14186;53.822;10.152;2023-09-12T10:43:52;11.48;;;7.20;;
26512;SDS011;14186;53.822;10.152;2023-09-12T10:48:53;12.77;;;8.32;;
26512;SDS011;14186;53.822;10.152;2023-09-12T10:53:53;10.55;;;6.90;;
26512;SDS011;14186;53.822;10.152;2023-09-12T10:59:10;12.75;;;7.30;;
26512;SDS011;14186;53.822;10.152;2023-09-12T11:04:30;9.00;;;5.68;;
26512;SDS011;14186;53.822;10.152;2023-09-12T11:09:31;8.82;;;5.63;;
26512;SDS011;14186;53.822;10.152;2023-09-12T11:14:32;7.47;;;5.32;;
26512;SDS011;14186;53.822;10.152;2023-09-12T11:19:35;7.25;;;4.22;;
26512;SDS011;14186;53.822;10.152;2023-09-12T11:24:42;8.05;;;4.55;;
26512;SDS011;14186;53.822;10.152;2023-09-12T11:29:44;13.15;;;6.85;;
26512;SDS011;14186;53.822;10.152;2023-09-12T11:34:45;13.80;;;7.55;;
26512;SDS011;14186;53.822;10.152;2023-09-12T11:39:45;16.02;;;7.75;;
26512;SDS011;14186;53.822;10.152;2023-09-12T11:44:47;14.68;;;8.23;;
26512;SDS011;14186;53.822;10.152;2023-09-12T11:49:49;11.50;;;7.60;;
26512;SDS011;14186;53.822;10.152;2023-09-12T11:54:49;12.52;;;7.47;;
26512;SDS011;14186;53.822;10.152;2023-09-12T11:59:51;10.18;;;7.07;;
26512;SDS011;14186;53.822;10.152;2023-09-12T12:04:51;12.43;;;7.32;;
26512;SDS011;14186;53.822;10.152;2023-09-12T12:09:52;11.75;;;6.70;;
26512;SDS011;14186;53.822;10.152;2023-09-12T12:14:54;8.50;;;6.35;;
26512;SDS011;14186;53.822;10.152;2023-09-12T12:19:54;9.35;;;6.32;;
26512;SDS011;14186;53.822;10.152;2023-09-12T12:24:54;13.50;;;7.15;;
26512;SDS011;14186;53.822;10.152;2023-09-12T12:29:56;11.00;;;7.88;;
26512;SDS011;14186;53.822;10.152;2023-09-12T12:34:56;11.60;;;8.27;;
26512;SDS011;14186;53.822;10.152;2023-09-12T12:39:56;16.67;;;8.65;;
26512;SDS011;14186;53.822;10.152;2023-09-12T12:44:58;12.90;;;8.00;;
26512;SDS011;14186;53.822;10.152;2023-09-12T12:49:58;10.30;;;7.80;;
26512;SDS011;14186;53.822;10.152;2023-09-12T12:55:03;14.32;;;8.35;;
26512;SDS011;14186;53.822;10.152;2023-09-12T13:00:06;14.35;;;8.93;;
26512;SDS011;14186;53.822;10.152;2023-09-12T13:05:19;14.90;;;8.57;;
26512;SDS011;14186;53.822;10.152;2023-09-12T13:10:20;15.15;;;10.25;;
26512;SDS011;14186;53.822;10.152;2023-09-12T13:15:21;12.05;;;8.57;;
26512;SDS011;14186;53.822;10.152;2023-09-12T13:20:22;11.70;;;8.02;;
26512;SDS011;14186;53.822;10.152;2023-09-12T13:25:22;14.20;;;9.82;;
26512;SDS011;14186;53.822;10.152;2023-09-12T13:30:23;12.75;;;8.95;;
26512;SDS011;14186;53.822;10.152;2023-09-12T13:35:24;14.65;;;10.15;;
26512;SDS011;14186;53.822;10.152;2023-09-12T13:40:24;12.57;;;8.82;;
26512;SDS011;14186;53.822;10.152;2023-09-12T13:45:25;11.93;;;8.05;;
26512;SDS011;14186;53.822;10.152;2023-09-12T13:50:26;13.23;;;9.25;;
26512;SDS011;14186;53.822;10.152;2023-09-12T13:55:26;14.85;;;9.20;;
26512;SDS011;14186;53.822;10.152;2023-09-12T14:00:28;11.63;;;8.75;;
26512;SDS011;14186;53.822;10.152;2023-09-12T14:05:28;12.55;;;8.27;;
26512;SDS011;14186;53.822;10.152;2023-09-12T14:10:28;12.45;;;8.80;;
26512;SDS011;14186;53.822;10.152;2023-09-12T14:15:29;14.38;;;9.45;;
26512;SDS011;14186;53.822;10.152;2023-09-12T14:20:30;12.40;;;9.07;;
26512;SDS011;14186;53.822;10.152;2023-09-12T14:25:30;14.15;;;10.27;;
26512;SDS011;14186;53.822;10.152;2023-09-12T14:30:31;18.10;;;12.15;;
26512;SDS011;14186;53.822;10.152;2023-09-12T14:35:32;16.42;;;12.10;;
26512;SDS011;14186;53.822;10.152;2023-09-12T14:40:32;19.17;;;12.43;;
26512;SDS011;14186;53.822;10.152;2023-09-12T14:45:34;17.95;;;12.77;;
26512;SDS011;14186;53.822;10.152;2023-09-12T14:50:34;21.42;;;14.65;;
26512;SDS011;14186;53.822;10.152;2023-09-12T14:55:34;17.80;;;13.20;;
26512;SDS011;14186;53.822;10.152;2023-09-12T15:00:36;20.52;;;13.48;;
26512;SDS011;14186;53.822;10.152;2023-09-12T15:05:36;19.73;;;14.45;;
26512;SDS011;14186;53.822;10.152;2023-09-12T15:10:36;18.70;;;13.93;;
26512;SDS011;14186;53.822;10.152;2023-09-12T15:15:38;17.27;;;12.60;;
26512;SDS011;14186;53.822;10.152;2023-09-12T15:20:38;16.60;;;11.52;;
26512;SDS011;14186;53.822;10.152;2023-09-12T15:25:38;17.17;;;12.60;;
26512;SDS011;14186;53.822;10.152;2023-09-12T15:30:40;20.73;;;14.93;;
26512;SDS011;14186;53.822;10.152;2023-09-12T15:35:40;24.50;;;14.43;;
26512;SDS011;14186;53.822;10.152;2023-09-12T15:40:40;23.83;;;15.93;;
26512;SDS011;14186;53.822;10.152;2023-09-12T15:45:42;22.27;;;15.63;;
26512;SDS011;14186;53.822;10.152;2023-09-12T15:50:42;21.00;;;15.38;;
26512;SDS011;14186;53.822;10.152;2023-09-12T15:55:42;21.50;;;14.35;;
26512;SDS011;14186;53.822;10.152;2023-09-12T16:00:44;23.38;;;15.95;;
26512;SDS011;14186;53.822;10.152;2023-09-12T16:05:44;21.75;;;16.35;;
26512;SDS011;14186;53.822;10.152;2023-09-12T16:10:44;22.55;;;16.17;;
26512;SDS011;14186;53.822;10.152;2023-09-12T16:15:46;21.65;;;15.60;;
26512;SDS011;14186;53.822;10.152;2023-09-12T16:20:46;23.52;;;17.20;;
26512;SDS011;14186;53.822;10.152;2023-09-12T16:25:46;22.20;;;16.08;;
26512;SDS011;14186;53.822;10.152;2023-09-12T16:30:48;20.42;;;15.10;;
26512;SDS011;14186;53.822;10.152;2023-09-12T16:35:48;24.38;;;16.55;;
26512;SDS011;14186;53.822;10.152;2023-09-12T16:40:48;21.52;;;14.70;;
26512;SDS011;14186;53.822;10.152;2023-09-12T16:45:51;21.15;;;15.70;;
26512;SDS011;14186;53.822;10.152;2023-09-12T16:50:51;21.90;;;15.25;;
26512;SDS011;14186;53.822;10.152;2023-09-12T16:55:51;21.45;;;15.40;;
26512;SDS011;14186;53.822;10.152;2023-09-12T17:00:53;20.85;;;15.35;;
26512;SDS011;14186;53.822;10.152;2023-09-12T17:05:53;22.60;;;16.33;;
26512;SDS011;14186;53.822;10.152;2023-09-12T17:10:54;17.65;;;12.13;;
26512;SDS011;14186;53.822;10.152;2023-09-12T17:15:55;20.23;;;13.65;;
26512;SDS011;14186;53.822;10.152;2023-09-12T17:20:56;20.15;;;15.15;;
26512;SDS011;14186;53.822;10.152;2023-09-12T17:25:56;18.10;;;12.82;;
26512;SDS011;14186;53.822;10.152;2023-09-12T17:30:57;18.23;;;13.80;;
26512;SDS011;14186;53.822;10.152;2023-09-12T17:35:58;18.02;;;13.27;;
26512;SDS011;14186;53.822;10.152;2023-09-12T17:40:58;17.35;;;12.52;;
26512;SDS011;14186;53.822;10.152;2023-09-12T17:45:59;17.73;;;13.40;;
26512;SDS011;14186;53.822;10.152;2023-09-12T17:50:59;18.65;;;13.18;;
26512;SDS011;14186;53.822;10.152;2023-09-12T17:56:00;19.23;;;14.55;;
26512;SDS011;14186;53.822;10.152;2023-09-12T18:01:01;18.75;;;13.75;;
26512;SDS011;14186;53.822;10.152;2023-09-12T18:06:02;20.80;;;15.00;;
26512;SDS011;14186;53.822;10.152;2023-09-12T18:11:02;20.83;;;14.43;;
26512;SDS011;14186;53.822;10.152;2023-09-12T18:16:04;19.05;;;13.23;;
26512;SDS011;14186;53.822;10.152;2023-09-12T18:21:04;15.27;;;10.82;;
26512;SDS011;14186;53.822;10.152;2023-09-12T18:26:05;19.60;;;14.10;;
26512;SDS011;14186;53.822;10.152;2023-09-12T18:31:06;20.92;;;14.30;;
26512;SDS011;14186;53.822;10.152;2023-09-12T18:36:07;22.02;;;14.30;;
26512;SDS011;14186;53.822;10.152;2023-09-12T18:41:07;24.17;;;16.40;;
26512;SDS011;14186;53.822;10.152;2023-09-12T18:46:09;21.60;;;15.52;;
26512;SDS011;14186;53.822;10.152;2023-09-12T18:51:09;23.23;;;15.52;;
26512;SDS011;14186;53.822;10.152;2023-09-12T18:56:09;22.20;;;14.57;;
26512;SDS011;14186;53.822;10.152;2023-09-12T19:01:11;19.05;;;14.35;;
26512;SDS011;14186;53.822;10.152;2023-09-12T19:06:11;19.98;;;14.10;;
26512;SDS011;14186;53.822;10.152;2023-09-12T19:11:11;22.38;;;15.20;;
26512;SDS011;14186;53.822;10.152;2023-09-12T19:16:13;20.98;;;13.98;;
26512;SDS011;14186;53.822;10.152;2023-09-12T19:21:13;25.92;;;15.18;;
26512;SDS011;14186;53.822;10.152;2023-09-12T19:26:13;22.90;;;16.15;;
26512;SDS011;14186;53.822;10.152;2023-09-12T19:31:15;21.35;;;14.20;;
26512;SDS011;14186;53.822;10.152;2023-09-12T19:36:15;21.30;;;14.18;;
26512;SDS011;14186;53.822;10.152;2023-09-12T19:41:15;20.17;;;13.30;;
26512;SDS011;14186;53.822;10.152;2023-09-12T19:46:17;22.80;;;15.20;;
26512;SDS011;14186;53.822;10.152;2023-09-12T19:51:17;22.33;;;15.90;;
26512;SDS011;14186;53.822;10.152;2023-09-12T19:56:17;23.85;;;15.25;;
26512;SDS011;14186;53.822;10.152;2023-09-12T20:01:19;24.88;;;16.58;;
26512;SDS011;14186;53.822;10.152;2023-09-12T20:06:19;24.55;;;16.27;;
26512;SDS011;14186;53.822;10.152;2023-09-12T20:11:19;26.17;;;17.88;;
26512;SDS011;14186;53.822;10.152;2023-09-12T20:16:21;21.80;;;15.32;;
26512;SDS011;14186;53.822;10.152;2023-09-12T20:21:21;26.20;;;17.10;;
26512;SDS011;14186;53.822;10.152;2023-09-12T20:26:21;28.20;;;17.42;;
26512;SDS011;14186;53.822;10.152;2023-09-12T20:31:23;24.55;;;16.90;;
26512;SDS011;14186;53.822;10.152;2023-09-12T20:36:23;24.98;;;17.90;;
26512;SDS011;14186;53.822;10.152;2023-09-12T20:41:23;30.90;;;18.73;;
26512;SDS011;14186;53.822;10.152;2023-09-12T20:46:25;26.23;;;16.70;;
26512;SDS011;14186;53.822;10.152;2023-09-12T20:51:25;25.98;;;17.45;;
26512;SDS011;14186;53.822;10.152;2023-09-12T20:56:25;32.17;;;17.85;;
26512;SDS011;14186;53.822;10.152;2023-09-12T21:01:27;26.73;;;17.17;;
26512;SDS011;14186;53.822;10.152;2023-09-12T21:06:27;27.80;;;17.83;;
26512;SDS011;14186;53.822;10.152;2023-09-12T21:11:27;31.38;;;19.73;;
26512;SDS011;14186;53.822;10.152;2023-09-12T21:16:29;29.35;;;18.38;;
26512;SDS011;14186;53.822;10.152;2023-09-12T21:21:29;26.55;;;17.40;;
26512;SDS011;14186;53.822;10.152;2023-09-12T21:26:29;28.48;;;17.55;;
26512;SDS011;14186;53.822;10.152;2023-09-12T21:31:31;27.92;;;17.60;;
26512;SDS011;14186;53.822;10.152;2023-09-12T21:36:31;28.80;;;18.75;;
26512;SDS011;14186;53.822;10.152;2023-09-12T21:41:31;26.90;;;19.30;;
26512;SDS011;14186;53.822;10.152;2023-09-12T21:46:33;30.67;;;18.40;;
26512;SDS011;14186;53.822;10.152;2023-09-12T21:51:33;31.30;;;20.23;;
26512;SDS011;14186;53.822;10.152;2023-09-12T21:56:34;29.13;;;18.58;;
26512;SDS011;14186;53.822;10.152;2023-09-12T22:01:35;32.83;;;20.30;;
26512;SDS011;14186;53.822;10.152;2023-09-12T22:06:35;29.27;;;19.27;;
26512;SDS011;14186;53.822;10.152;2023-09-12T22:11:36;29.63;;;18.25;;
26512;SDS011;14186;53.822;10.152;2023-09-12T22:16:37;27.98;;;17.80;;
26512;SDS011;14186;53.822;10.152;2023-09-12T22:21:37;24.92;;;16.30;;
26512;SDS011;14186;53.822;10.152;2023-09-12T22:26:38;29.63;;;18.73;;
26512;SDS011;14186;53.822;10.152;2023-09-12T22:31:39;26.90;;;17.95;;
26512;SDS011;14186;53.822;10.152;2023-09-12T22:36:39;29.98;;;18.05;;
26512;SDS011;14186;53.822;10.152;2023-09-12T22:41:39;29.98;;;18.98;;
26512;SDS011;14186;53.822;10.152;2023-09-12T22:46:41;36.40;;;20.38;;
26512;SDS011;14186;53.822;10.152;2023-09-12T22:51:41;31.83;;;19.50;;
26512;SDS011;14186;53.822;10.152;2023-09-12T22:56:41;31.40;;;19.58;;
26512;SDS011;14186;53.822;10.152;2023-09-12T23:01:43;33.05;;;19.50;;
26512;SDS011;14186;53.822;10.152;2023-09-12T23:06:43;33.17;;;19.38;;
26512;SDS011;14186;53.822;10.152;2023-09-12T23:11:43;35.65;;;19.65;;
26512;SDS011;14186;53.822;10.152;2023-09-12T23:16:45;33.15;;;19.90;;
26512;SDS011;14186;53.822;10.152;2023-09-12T23:21:45;28.83;;;17.52;;
26512;SDS011;14186;53.822;10.152;2023-09-12T23:26:45;26.42;;;16.90;;
26512;SDS011;14186;53.822;10.152;2023-09-12T23:31:47;27.27;;;17.15;;
26512;SDS011;14186;53.822;10.152;2023-09-12T23:36:47;28.42;;;17.70;;
26512;SDS011;14186;53.822;10.152;2023-09-12T23:41:47;28.08;;;18.23;;
26512;SDS011;14186;53.822;10.152;2023-09-12T23:46:49;25.05;;;15.73;;
26512;SDS011;14186;53.822;10.152;2023-09-12T23:51:49;24.50;;;15.75;;
26512;SDS011;14186;53.822;10.152;2023-09-12T23:56:49;26.05;;;15.70;;
